createdAt,value
2023-01-04T00:04:28.828Z,99.99
2023-01-04T00:09:30.009Z,99.99
2023-01-04T00:14:31.162Z,99.99
2023-01-04T00:19:32.476Z,99.99
2023-01-04T00:24:34.169Z,99.99
2023-01-04T00:29:33.294Z,99.99
2023-01-04T00:34:34.541Z,99.99
2023-01-04T00:39:35.839Z,99.99
2023-01-04T00:44:37.033Z,99.99
2023-01-04T00:49:39.359Z,99.99
2023-01-04T00:54:38.526Z,99.99
2023-01-04T00:59:39.760Z,99.99
2023-01-04T01:04:40.999Z,99.99
2023-01-04T01:09:43.257Z,99.99
2023-01-04T01:14:42.455Z,99.99
2023-01-04T01:19:43.628Z,99.99
2023-01-04T01:24:44.801Z,99.99
2023-01-04T01:29:46.030Z,99.99
2023-01-04T01:34:47.292Z,99.99
2023-01-04T01:39:49.452Z,99.99
2023-01-04T01:44:48.601Z,99.99
2023-01-04T01:49:49.833Z,99.99
2023-01-04T01:54:51.090Z,99.99
2023-01-04T01:59:52.286Z,99.99
2023-01-04T02:04:53.553Z,99.99
2023-01-04T02:09:54.776Z,99.99
2023-01-04T02:14:55.967Z,99.99
2023-01-04T02:19:57.242Z,99.99
2023-01-04T02:24:58.483Z,99.99
2023-01-04T02:29:59.684Z,99.99
2023-01-04T02:35:00.903Z,99.99
2023-01-04T02:40:02.123Z,99.99
2023-01-04T02:45:03.362Z,99.99
2023-01-04T02:50:05.805Z,99.99
2023-01-04T02:55:05.107Z,99.99
2023-01-04T03:00:06.314Z,99.99
2023-01-04T03:05:07.497Z,99.99
2023-01-04T03:10:08.775Z,99.99
2023-01-04T03:15:09.981Z,99.99
2023-01-04T03:20:11.184Z,99.99
2023-01-04T03:25:12.427Z,99.99
2023-01-04T03:30:13.598Z,99.99
2023-01-04T03:35:14.853Z,99.99
2023-01-04T03:40:16.095Z,99.99
2023-01-04T03:45:17.233Z,99.99
2023-01-04T03:50:18.457Z,99.99
2023-01-04T03:55:19.673Z,99.99
2023-01-04T04:00:20.926Z,99.99
2023-01-04T04:05:22.169Z,99.99
2023-01-04T04:10:23.932Z,99.99
2023-01-04T04:15:23.070Z,99.99
2023-01-04T04:20:24.276Z,99.99
2023-01-04T04:25:25.441Z,99.99
2023-01-04T04:30:26.643Z,99.99
2023-01-04T04:35:28.910Z,99.99
2023-01-04T04:40:28.193Z,99.99
2023-01-04T04:45:29.442Z,99.99
2023-01-04T04:50:30.690Z,99.99
2023-01-04T04:55:59.919Z,99.99
2023-01-04T05:00:33.088Z,99.99
2023-01-04T05:05:34.260Z,99.99
2023-01-04T05:10:35.500Z,99.99
2023-01-04T05:15:36.747Z,99.99
2023-01-04T05:20:37.891Z,99.99
2023-01-04T05:25:39.089Z,99.99
2023-01-04T05:30:40.250Z,99.99
2023-01-04T05:35:41.469Z,99.99
2023-01-04T05:40:42.674Z,99.99
2023-01-04T05:45:43.833Z,99.99
2023-01-04T05:50:45.057Z,99.99
2023-01-04T05:55:46.281Z,99.99
2023-01-04T06:00:47.485Z,99.99
2023-01-04T06:05:48.732Z,99.99
2023-01-04T06:10:49.959Z,99.99
2023-01-04T06:15:51.126Z,99.99
2023-01-04T06:20:52.350Z,99.99
2023-01-04T06:25:53.550Z,99.99
2023-01-04T06:30:54.836Z,99.99
2023-01-04T06:35:56.060Z,99.99
2023-01-04T06:40:57.241Z,99.99
2023-01-04T06:45:58.446Z,99.99
2023-01-04T06:50:59.697Z,99.99
2023-01-04T06:56:00.951Z,99.99
2023-01-04T07:01:02.253Z,99.99
2023-01-04T07:06:04.441Z,99.99
2023-01-04T07:11:03.644Z,99.99
2023-01-04T07:16:04.839Z,99.99
2023-01-04T07:21:06.085Z,99.99
2023-01-04T07:26:07.280Z,99.99
2023-01-04T07:31:08.488Z,99.99
2023-01-04T07:36:09.706Z,99.99
2023-01-04T07:41:10.883Z,99.99
2023-01-04T07:46:12.195Z,99.99
2023-01-04T07:51:13.396Z,99.99
2023-01-04T07:56:18.754Z,99.99
2023-01-04T08:01:14.354Z,99.99
2023-01-04T08:06:15.564Z,99.99
2023-01-04T08:11:16.785Z,99.99
2023-01-04T08:16:18.013Z,99.99
2023-01-04T08:21:19.152Z,99.99
2023-01-04T08:26:20.401Z,99.99
2023-01-04T08:31:21.667Z,99.99
2023-01-04T08:36:27.121Z,99.99
2023-01-04T08:41:56.071Z,99.99
2023-01-04T08:46:22.875Z,99.99
2023-01-04T08:51:24.183Z,99.99
2023-01-04T08:56:25.440Z,99.99
2023-01-04T09:01:27.878Z,99.72
2023-01-04T09:06:27.589Z,99.99
2023-01-04T09:11:26.795Z,99.99
2023-01-04T09:16:28.046Z,99.99
2023-01-04T09:21:29.326Z,98.61
2023-01-04T09:26:30.539Z,95.78
2023-01-04T09:31:31.760Z,96.93
2023-01-04T09:36:32.925Z,94.58
2023-01-04T09:41:33.060Z,90.73
2023-01-04T09:46:34.411Z,90.38
2023-01-04T09:51:35.572Z,89.89
2023-01-04T09:56:37.014Z,87.49
2023-01-04T10:01:38.337Z,86.73
2023-01-04T10:06:39.585Z,85.13
2023-01-04T10:11:41.736Z,85.03
2023-01-04T10:17:12.677Z,87.12
2023-01-04T10:21:40.961Z,85.41
2023-01-04T10:26:42.164Z,84.49
2023-01-04T10:31:43.391Z,85.89
2023-01-04T10:36:44.548Z,83.90
2023-01-04T10:41:45.698Z,81.22
2023-01-04T10:46:46.883Z,79.82
2023-01-04T10:51:48.045Z,77.70
2023-01-04T10:56:49.295Z,75.21
2023-01-04T11:01:50.636Z,75.24
2023-01-04T11:06:51.885Z,73.10
2023-01-04T11:11:53.055Z,75.99
2023-01-04T11:16:54.348Z,76.64
2023-01-04T11:21:55.503Z,75.96
2023-01-04T11:26:56.598Z,76.68
2023-01-04T11:31:57.744Z,76.64
2023-01-04T11:37:02.875Z,77.26
2023-01-04T11:42:03.244Z,78.11
2023-01-04T11:47:01.051Z,74.83
2023-01-04T11:52:02.307Z,71.73
2023-01-04T11:57:10.742Z,71.60
2023-01-04T12:02:04.722Z,69.32
2023-01-04T12:07:04.060Z,71.84
2023-01-04T12:12:06.929Z,74.59
2023-01-04T12:17:05.837Z,74.66
2023-01-04T12:22:07.052Z,74.66
2023-01-04T12:27:08.312Z,73.94
2023-01-04T12:32:10.429Z,70.85
2023-01-04T12:37:09.571Z,70.37
2023-01-04T12:42:10.732Z,69.79
2023-01-04T12:47:11.859Z,69.49
2023-01-04T12:52:30.658Z,71.50
2023-01-04T12:57:13.093Z,72.41
2023-01-04T13:02:14.312Z,74.59
2023-01-04T13:07:15.562Z,74.69
2023-01-04T13:12:16.838Z,72.99
2023-01-04T13:17:18.190Z,73.30
2023-01-04T13:22:24.924Z,72.65
2023-01-04T13:27:19.450Z,74.39
2023-01-04T13:32:22.582Z,77.15
2023-01-04T13:37:21.892Z,78.49
2023-01-04T13:42:23.115Z,78.28
2023-01-04T13:47:24.211Z,78.38
2023-01-04T13:52:50.461Z,76.03
2023-01-04T13:57:25.423Z,75.86
2023-01-04T14:02:26.678Z,77.50
2023-01-04T14:07:27.858Z,76.57
2023-01-04T14:12:29.068Z,75.10
2023-01-04T14:17:30.161Z,78.01
2023-01-04T14:22:32.261Z,81.32
2023-01-04T14:27:31.515Z,81.12
2023-01-04T14:32:32.692Z,80.30
2023-01-04T14:37:33.817Z,79.96
2023-01-04T14:42:34.983Z,78.31
2023-01-04T14:47:36.143Z,79.27
2023-01-04T14:52:37.388Z,79.52
2023-01-04T14:57:38.582Z,80.99
2023-01-04T15:02:39.981Z,83.39
2023-01-04T15:07:39.305Z,83.04
2023-01-04T15:12:40.525Z,84.52
2023-01-04T15:17:41.632Z,84.41
2023-01-04T15:22:42.778Z,83.69
2023-01-04T15:27:45.873Z,85.33
2023-01-04T15:32:44.987Z,83.49
2023-01-04T15:37:47.128Z,85.54
2023-01-04T15:42:46.266Z,86.81
2023-01-04T15:47:47.371Z,87.71
2023-01-04T15:52:48.507Z,87.88
2023-01-04T15:57:49.636Z,86.81
2023-01-04T16:02:50.820Z,88.29
2023-01-04T16:07:52.004Z,87.94
2023-01-04T16:12:56.990Z,88.56
2023-01-04T16:17:54.384Z,88.24
2023-01-04T16:22:55.485Z,87.12
2023-01-04T16:27:57.596Z,88.29
2023-01-04T16:32:57.693Z,88.29
2023-01-04T16:37:56.843Z,89.31
2023-01-04T16:42:57.944Z,90.03
2023-01-04T16:47:59.066Z,90.48
2023-01-04T16:53:01.189Z,89.36
2023-01-04T16:58:01.319Z,84.18
2023-01-04T17:03:01.454Z,78.80
2023-01-04T17:07:59.569Z,78.97
2023-01-04T17:13:01.677Z,76.88
2023-01-04T17:18:02.838Z,76.43
2023-01-04T17:23:02.063Z,75.62
2023-01-04T17:28:03.353Z,73.85
2023-01-04T17:33:04.604Z,73.10
2023-01-04T17:38:05.856Z,74.05
2023-01-04T17:43:09.039Z,72.89
2023-01-04T17:48:09.156Z,74.46
2023-01-04T17:53:08.459Z,75.07
2023-01-04T17:58:12.067Z,74.35
2023-01-04T18:03:10.345Z,74.52
2023-01-04T18:08:11.644Z,73.81
2023-01-04T18:13:12.831Z,74.97
2023-01-04T18:18:14.191Z,75.27
2023-01-04T18:23:25.266Z,75.27
2023-01-04T18:28:16.554Z,75.17
2023-01-04T18:33:16.610Z,74.56
2023-01-04T18:38:15.942Z,74.05
2023-01-04T18:43:17.330Z,75.07
2023-01-04T18:48:18.799Z,74.80
2023-01-04T18:53:18.027Z,75.79
2023-01-04T18:58:19.352Z,75.62
2023-01-04T19:03:20.616Z,74.15
2023-01-04T19:08:22.042Z,72.41
2023-01-04T19:13:21.506Z,74.22
2023-01-04T19:18:20.963Z,74.79
2023-01-04T19:23:22.377Z,74.49
2023-01-04T19:28:23.886Z,73.47
2023-01-04T19:33:23.198Z,70.92
2023-01-04T19:38:24.572Z,70.81
2023-01-04T19:43:26.002Z,70.48
2023-01-04T19:48:27.466Z,69.90
2023-01-04T19:53:26.975Z,70.51
2023-01-04T19:58:26.512Z,68.64
2023-01-04T20:03:25.129Z,69.05
2023-01-04T20:08:26.810Z,69.05
2023-01-04T20:13:29.698Z,68.54
2023-01-04T20:18:27.153Z,69.08
2023-01-04T20:23:29.204Z,69.18
2023-01-04T20:28:28.489Z,67.68
2023-01-04T20:33:30.699Z,66.70
2023-01-04T20:38:32.557Z,67.52
2023-01-04T20:43:30.415Z,66.36
2023-01-04T20:48:29.896Z,63.79
2023-01-04T20:53:31.129Z,63.99
2023-01-04T20:58:32.320Z,64.73
2023-01-04T21:03:33.590Z,65.25
2023-01-04T21:08:35.059Z,65.25
2023-01-04T21:13:36.329Z,64.87
2023-01-04T21:18:37.470Z,64.36
2023-01-04T21:23:38.672Z,65.10
2023-01-04T21:28:39.826Z,66.15
2023-01-04T21:33:41.042Z,63.71
2023-01-04T21:38:42.246Z,62.18
2023-01-04T21:43:43.462Z,61.44
2023-01-04T21:48:45.059Z,61.14
2023-01-04T21:53:44.286Z,61.54
2023-01-04T21:58:45.450Z,61.24
2023-01-04T22:03:46.681Z,61.78
2023-01-04T22:08:48.802Z,61.50
2023-01-04T22:13:49.037Z,61.30
2023-01-04T22:18:48.207Z,61.27
2023-01-04T22:23:49.576Z,59.64
2023-01-04T22:28:50.752Z,60.53
2023-01-04T22:33:51.960Z,59.84
2023-01-04T22:38:53.194Z,58.72
2023-01-04T22:43:54.365Z,60.22
2023-01-04T22:48:55.555Z,61.37
2023-01-04T22:53:55.292Z,59.84
2023-01-04T22:58:56.497Z,60.69
2023-01-04T23:03:57.809Z,60.05
2023-01-04T23:08:59.012Z,59.74
2023-01-04T23:14:00.153Z,61.40
2023-01-04T23:19:01.336Z,61.12
2023-01-04T23:24:02.483Z,62.14
2023-01-04T23:29:03.701Z,60.44
2023-01-04T23:34:04.875Z,60.74
2023-01-04T23:39:06.048Z,60.13
2023-01-04T23:44:07.290Z,60.13
2023-01-04T23:49:08.467Z,61.18
2023-01-04T23:54:09.656Z,65.25
2023-01-04T23:59:10.879Z,63.47
